createdAt,value
2022-09-16T00:01:20.237Z,99354.00
2022-09-16T00:03:49.086Z,99345.00
2022-09-16T00:06:22.296Z,99347.00
2022-09-16T00:08:52.776Z,99343.00
2022-09-16T00:11:21.485Z,99356.00
2022-09-16T00:13:49.965Z,99357.00
2022-09-16T00:16:20.657Z,99354.00
2022-09-16T00:18:49.493Z,99364.00
2022-09-16T00:21:17.984Z,99370.00
2022-09-16T00:23:46.481Z,99362.00
2022-09-16T00:26:16.301Z,99361.00
2022-09-16T00:28:45.173Z,99366.00
2022-09-16T00:31:13.874Z,99359.00
2022-09-16T00:33:42.714Z,99356.00
2022-09-16T00:36:14.452Z,99350.00
2022-09-16T00:38:43.917Z,99357.00
2022-09-16T00:41:18.785Z,99350.00
2022-09-16T00:43:58.739Z,99353.00
2022-09-16T00:46:36.490Z,99349.00
2022-09-16T00:49:08.202Z,99353.00
2022-09-16T00:51:37.554Z,99361.00
2022-09-16T00:54:09.672Z,99362.00
2022-09-16T00:56:42.568Z,99355.00
2022-09-16T00:59:15.787Z,99363.00
2022-09-16T01:01:45.453Z,99359.00
2022-09-16T01:04:18.541Z,99362.00
2022-09-16T01:06:47.650Z,99359.00
2022-09-16T01:09:16.523Z,99363.00
2022-09-16T01:11:46.320Z,99362.00
2022-09-16T01:14:33.584Z,99368.00
2022-09-16T01:17:17.391Z,99357.00
2022-09-16T01:20:19.448Z,99365.00
2022-09-16T01:23:02.918Z,99361.00
2022-09-16T01:25:50.930Z,99371.00
2022-09-16T01:28:48.643Z,99355.00
2022-09-16T01:31:22.951Z,99359.00
2022-09-16T01:34:00.910Z,99359.00
2022-09-16T01:36:39.961Z,99371.00
2022-09-16T01:39:16.271Z,99370.00
2022-09-16T01:41:58.797Z,99371.00
2022-09-16T01:44:36.725Z,99377.00
2022-09-16T01:47:12.319Z,99372.00
2022-09-16T01:49:46.381Z,99367.00
2022-09-16T01:52:24.805Z,99376.00
2022-09-16T01:54:57.669Z,99360.00
2022-09-16T01:57:33.301Z,99364.00
2022-09-16T02:00:10.754Z,99362.00
2022-09-16T02:02:47.198Z,99367.00
2022-09-16T02:05:21.360Z,99366.00
2022-09-16T02:07:58.412Z,99367.00
2022-09-16T02:10:30.333Z,99366.00
2022-09-16T02:13:05.702Z,99363.00
2022-09-16T02:15:35.697Z,99364.00
2022-09-16T02:18:12.859Z,99367.00
2022-09-16T02:20:47.627Z,99360.00
2022-09-16T02:23:20.886Z,99364.00
2022-09-16T02:25:51.348Z,99359.00
2022-09-16T02:28:23.504Z,99350.00
2022-09-16T02:30:56.776Z,99350.00
2022-09-16T02:33:40.906Z,99352.00
2022-09-16T02:36:13.574Z,99357.00
2022-09-16T02:38:46.697Z,99360.00
2022-09-16T02:41:15.738Z,99362.00
2022-09-16T02:43:45.209Z,99364.00
2022-09-16T02:46:20.735Z,99358.00
2022-09-16T02:49:00.253Z,99361.00
2022-09-16T02:51:34.988Z,99366.00
2022-09-16T02:54:07.183Z,99358.00
2022-09-16T02:56:38.790Z,99361.00
2022-09-16T02:59:11.052Z,99348.00
2022-09-16T03:01:42.566Z,99358.00
2022-09-16T03:04:15.123Z,99363.00
2022-09-16T03:06:44.239Z,99358.00
2022-09-16T03:09:15.006Z,99363.00
2022-09-16T03:12:11.637Z,99358.00
2022-09-16T03:15:09.874Z,99348.00
2022-09-16T03:17:56.705Z,99360.00
2022-09-16T03:20:35.972Z,99357.00
2022-09-16T03:23:15.129Z,99365.00
2022-09-16T03:25:52.385Z,99365.00
2022-09-16T03:28:26.825Z,99368.00
2022-09-16T03:31:00.047Z,99366.00
2022-09-16T03:33:35.055Z,99354.00
2022-09-16T03:36:08.953Z,99353.00
2022-09-16T03:38:39.983Z,99349.00
2022-09-16T03:41:09.953Z,99357.00
2022-09-16T03:43:38.476Z,99353.00
2022-09-16T03:46:16.695Z,99350.00
2022-09-16T03:48:45.625Z,99358.00
2022-09-16T03:51:16.350Z,99355.00
2022-09-16T03:53:44.812Z,99356.00
2022-09-16T03:56:13.312Z,99353.00
2022-09-16T03:58:41.821Z,99346.00
2022-09-16T04:01:10.342Z,99347.00
2022-09-16T04:03:38.775Z,99359.00
2022-09-16T04:06:07.414Z,99349.00
2022-09-16T04:08:39.628Z,99354.00
2022-09-16T04:11:08.945Z,99353.00
2022-09-16T04:13:37.680Z,99355.00
2022-09-16T04:16:06.878Z,99358.00
2022-09-16T04:18:36.019Z,99353.00
2022-09-16T04:21:06.209Z,99360.00
2022-09-16T04:23:36.077Z,99351.00
2022-09-16T04:26:05.009Z,99359.00
2022-09-16T04:28:35.964Z,99358.00
2022-09-16T04:31:06.472Z,99354.00
2022-09-16T04:33:36.708Z,99353.00
2022-09-16T04:36:07.137Z,99346.00
2022-09-16T04:38:37.272Z,99352.00
2022-09-16T04:41:07.806Z,99357.00
2022-09-16T04:43:36.924Z,99365.00
2022-09-16T04:46:06.926Z,99362.00
2022-09-16T04:48:36.191Z,99361.00
2022-09-16T04:51:06.653Z,99361.00
2022-09-16T04:53:36.772Z,99371.00
2022-09-16T04:56:07.889Z,99354.00
2022-09-16T04:58:36.793Z,99355.00
2022-09-16T05:01:07.544Z,99362.00
2022-09-16T05:03:36.184Z,99369.00
2022-09-16T05:06:09.830Z,99362.00
2022-09-16T05:08:40.120Z,99364.00
2022-09-16T05:11:10.218Z,99363.00
2022-09-16T05:13:39.050Z,99359.00
2022-09-16T05:16:10.197Z,99371.00
2022-09-16T05:18:41.301Z,99383.00
2022-09-16T05:21:12.447Z,99380.00
2022-09-16T05:23:46.778Z,99380.00
2022-09-16T05:26:18.078Z,99375.00
2022-09-16T05:28:49.028Z,99381.00
2022-09-16T05:31:19.639Z,99371.00
2022-09-16T05:33:55.534Z,99371.00
2022-09-16T05:36:29.848Z,99372.00
2022-09-16T05:39:21.525Z,99368.00
2022-09-16T05:41:49.581Z,99362.00
2022-09-16T05:44:20.107Z,99370.00
2022-09-16T05:46:48.932Z,99372.00
2022-09-16T05:49:20.865Z,99376.00
2022-09-16T05:51:50.655Z,99381.00
2022-09-16T05:54:24.072Z,99382.00
2022-09-16T05:56:53.568Z,99380.00
2022-09-16T05:59:22.613Z,99375.00
2022-09-16T06:01:51.457Z,99386.00
2022-09-16T06:04:19.933Z,99377.00
2022-09-16T06:06:49.269Z,99370.00
2022-09-16T06:09:21.394Z,99374.00
2022-09-16T06:11:51.746Z,99378.00
2022-09-16T06:14:23.125Z,99377.00
2022-09-16T06:16:51.764Z,99375.00
2022-09-16T06:19:20.467Z,99380.00
2022-09-16T06:21:49.417Z,99384.00
2022-09-16T06:24:20.656Z,99380.00
2022-09-16T06:26:50.335Z,99378.00
2022-09-16T06:29:19.038Z,99374.00
2022-09-16T06:31:47.487Z,99377.00
2022-09-16T06:34:18.569Z,99371.00
2022-09-16T06:36:47.336Z,99373.00
2022-09-16T06:39:17.212Z,99367.00
2022-09-16T06:41:47.230Z,99374.00
2022-09-16T06:44:16.263Z,99370.00
2022-09-16T06:46:45.214Z,99362.00
2022-09-16T06:49:13.877Z,99377.00
2022-09-16T06:51:43.923Z,99377.00
2022-09-16T06:54:12.815Z,99378.00
2022-09-16T06:56:41.703Z,99382.00
2022-09-16T06:59:14.330Z,99370.00
2022-09-16T07:01:43.091Z,99373.00
2022-09-16T07:04:13.568Z,99366.00
2022-09-16T07:07:07.999Z,99365.00
2022-09-16T07:09:31.286Z,99377.00
2022-09-16T07:12:00.314Z,99377.00
2022-09-16T07:14:32.524Z,99388.00
2022-09-16T07:17:01.589Z,99378.00
2022-09-16T07:19:30.649Z,99377.00
2022-09-16T07:21:59.282Z,99372.00
2022-09-16T07:24:27.754Z,99390.00
2022-09-16T07:26:56.283Z,99388.00
2022-09-16T07:29:24.899Z,99387.00
2022-09-16T07:31:54.733Z,99381.00
2022-09-16T07:34:23.143Z,99376.00
2022-09-16T07:36:51.727Z,99385.00
2022-09-16T07:39:21.294Z,99394.00
2022-09-16T07:41:49.857Z,99386.00
2022-09-16T07:44:20.030Z,99387.00
2022-09-16T07:46:51.258Z,99382.00
2022-09-16T07:49:21.911Z,99383.00
2022-09-16T07:51:53.611Z,99373.00
2022-09-16T07:54:43.203Z,99389.00
2022-09-16T07:57:11.719Z,99385.00
2022-09-16T07:59:40.297Z,99384.00
2022-09-16T08:02:11.838Z,99383.00
2022-09-16T08:04:41.859Z,99395.00
2022-09-16T08:07:10.475Z,99382.00
2022-09-16T08:09:50.025Z,99380.00
2022-09-16T08:12:19.645Z,99377.00
2022-09-16T08:14:50.139Z,99377.00
2022-09-16T08:17:18.705Z,99383.00
2022-09-16T08:19:49.874Z,99375.00
2022-09-16T08:22:23.528Z,99380.00
2022-09-16T08:24:53.739Z,99374.00
2022-09-16T08:27:22.324Z,99384.00
2022-09-16T08:29:50.812Z,99385.00
2022-09-16T08:32:19.303Z,99388.00
2022-09-16T08:34:49.207Z,99377.00
2022-09-16T08:37:17.713Z,99386.00
2022-09-16T08:39:47.948Z,99388.00
2022-09-16T08:42:35.994Z,99389.00
2022-09-16T08:45:19.187Z,99388.00
2022-09-16T08:48:04.217Z,99389.00
2022-09-16T08:50:40.272Z,99390.00
2022-09-16T08:53:14.781Z,99396.00
2022-09-16T08:55:47.013Z,99388.00
2022-09-16T08:58:18.297Z,99386.00
2022-09-16T09:00:53.961Z,99396.00
2022-09-16T09:03:34.745Z,99400.00
2022-09-16T09:06:14.463Z,99400.00
2022-09-16T09:08:51.966Z,99387.00
2022-09-16T09:11:27.822Z,99375.00
2022-09-16T09:14:17.849Z,99389.00
2022-09-16T09:16:54.818Z,99379.00
2022-09-16T09:19:35.447Z,99379.00
2022-09-16T09:22:14.805Z,99383.00
2022-09-16T09:24:59.163Z,99383.00
2022-09-16T09:27:32.690Z,99364.00
2022-09-16T09:30:21.913Z,99380.00
2022-09-16T09:33:27.760Z,99379.00
2022-09-16T09:36:29.755Z,99391.00
2022-09-16T09:39:31.388Z,99381.00
2022-09-16T09:42:08.977Z,99376.00
2022-09-16T09:45:21.517Z,99379.00
2022-09-16T09:47:53.528Z,99383.00
2022-09-16T09:50:42.807Z,99387.00
2022-09-16T09:54:01.147Z,99387.00
2022-09-16T09:56:32.342Z,99394.00
2022-09-16T09:59:09.860Z,99390.00
2022-09-16T10:01:38.467Z,99389.00
2022-09-16T10:04:13.691Z,99372.00
2022-09-16T10:06:45.300Z,99364.00
2022-09-16T10:09:16.966Z,99356.00
2022-09-16T10:11:52.273Z,99362.00
2022-09-16T10:14:36.985Z,99360.00
2022-09-16T10:17:21.906Z,99360.00
2022-09-16T10:19:57.662Z,99357.00
2022-09-16T10:22:30.049Z,99355.00
2022-09-16T10:25:08.578Z,99352.00
2022-09-16T10:27:39.866Z,99349.00
2022-09-16T10:30:33.315Z,99342.00
2022-09-16T10:33:06.936Z,99339.00
2022-09-16T10:35:52.455Z,99334.00
2022-09-16T10:38:23.397Z,99343.00
2022-09-16T10:40:57.939Z,99336.00
2022-09-16T10:43:35.013Z,99335.00
2022-09-16T10:46:06.252Z,99334.00
2022-09-16T10:48:46.822Z,99329.00
2022-09-16T10:51:24.374Z,99331.00
2022-09-16T10:54:00.173Z,99333.00
2022-09-16T10:56:30.761Z,99346.00
2022-09-16T10:59:16.716Z,99341.00
2022-09-16T11:02:10.967Z,99361.00
2022-09-16T11:05:03.685Z,99372.00
2022-09-16T11:08:02.874Z,99350.00
2022-09-16T11:11:11.734Z,99347.00
2022-09-16T11:17:38.795Z,99352.00
2022-09-16T11:20:41.393Z,99358.00
2022-09-16T11:26:14.936Z,99343.00
2022-09-16T11:29:31.890Z,99346.00
2022-09-16T11:32:17.164Z,99341.00
2022-09-16T11:35:10.700Z,99344.00
2022-09-16T11:37:49.702Z,99343.00
2022-09-16T11:40:31.568Z,99334.00
2022-09-16T11:43:16.979Z,99333.00
2022-09-16T11:45:52.355Z,99335.00
2022-09-16T11:48:39.725Z,99326.00
2022-09-16T11:51:20.193Z,99326.00
2022-09-16T11:54:10.093Z,99327.00
2022-09-16T11:56:42.668Z,99325.00
2022-09-16T11:59:19.789Z,99330.00
2022-09-16T12:01:53.896Z,99324.00
2022-09-16T12:04:30.040Z,99326.00
2022-09-16T12:07:05.335Z,99318.00
2022-09-16T12:09:41.081Z,99309.00
2022-09-16T12:12:14.402Z,99315.00
2022-09-16T12:14:46.752Z,99305.00
2022-09-16T12:17:38.504Z,99307.00
2022-09-16T12:20:17.748Z,99299.00
2022-09-16T12:22:54.411Z,99298.00
2022-09-16T12:25:30.083Z,99289.00
2022-09-16T12:28:07.027Z,99289.00
2022-09-16T12:30:40.138Z,99290.00
2022-09-16T12:33:19.255Z,99278.00
2022-09-16T12:35:57.520Z,99287.00
2022-09-16T12:38:26.466Z,99285.00
2022-09-16T12:41:13.711Z,99280.00
2022-09-16T12:44:16.683Z,99293.00
2022-09-16T12:47:05.638Z,99289.00
2022-09-16T12:50:02.320Z,99283.00
2022-09-16T12:53:09.047Z,99282.00
2022-09-16T12:55:56.071Z,99282.00
2022-09-16T12:59:03.145Z,99277.00
2022-09-16T13:01:36.492Z,99266.00
2022-09-16T13:04:14.020Z,99254.00
2022-09-16T13:06:48.474Z,99254.00
2022-09-16T13:09:24.685Z,99249.00
2022-09-16T13:12:36.761Z,99256.00
2022-09-16T13:14:52.580Z,99251.00
2022-09-16T13:17:31.140Z,99256.00
2022-09-16T13:20:07.352Z,99253.00
2022-09-16T13:22:46.141Z,99241.00
2022-09-16T13:25:24.173Z,99240.00
2022-09-16T13:28:01.709Z,99237.00
2022-09-16T13:30:38.751Z,99242.00
2022-09-16T13:33:41.157Z,99245.00
2022-09-16T13:36:31.822Z,99271.00
2022-09-16T13:39:01.955Z,99272.00
2022-09-16T13:41:35.669Z,99278.00
2022-09-16T13:44:31.134Z,99281.00
2022-09-16T13:47:17.081Z,99276.00
2022-09-16T13:49:50.229Z,99276.00
2022-09-16T13:52:22.332Z,99279.00
2022-09-16T13:55:09.990Z,99278.00
2022-09-16T13:58:04.029Z,99274.00
2022-09-16T14:00:41.548Z,99270.00
2022-09-16T14:03:28.066Z,99265.00
2022-09-16T14:06:25.663Z,99272.00
2022-09-16T14:09:01.456Z,99271.00
2022-09-16T14:11:40.161Z,99274.00
2022-09-16T14:14:24.529Z,99265.00
2022-09-16T14:17:06.080Z,99258.00
2022-09-16T14:19:38.560Z,99255.00
2022-09-16T14:22:15.323Z,99250.00
2022-09-16T14:24:45.247Z,99242.00
2022-09-16T14:27:22.222Z,99245.00
2022-09-16T14:29:58.737Z,99242.00
2022-09-16T14:32:31.010Z,99242.00
2022-09-16T14:35:03.273Z,99241.00
2022-09-16T14:37:33.163Z,99233.00
2022-09-16T14:40:08.006Z,99244.00
2022-09-16T14:42:37.525Z,99239.00
2022-09-16T14:45:08.353Z,99249.00
2022-09-16T14:47:51.734Z,99232.00
2022-09-16T14:50:24.666Z,99222.00
2022-09-16T14:52:58.157Z,99231.00
2022-09-16T14:55:29.957Z,99229.00
2022-09-16T14:57:59.255Z,99223.00
2022-09-16T15:00:36.019Z,99230.00
2022-09-16T15:03:13.243Z,99218.00
2022-09-16T15:05:44.884Z,99208.00
2022-09-16T15:08:19.999Z,99209.00
2022-09-16T15:10:53.269Z,99199.00
2022-09-16T15:13:25.322Z,99208.00
2022-09-16T15:15:57.836Z,99206.00
2022-09-16T15:18:30.146Z,99210.00
2022-09-16T15:21:07.047Z,99203.00
2022-09-16T15:23:37.357Z,99206.00
2022-09-16T15:26:16.846Z,99215.00
2022-09-16T15:28:57.229Z,99206.00
2022-09-16T15:31:35.081Z,99205.00
2022-09-16T15:34:20.685Z,99208.00
2022-09-16T15:36:50.751Z,99212.00
2022-09-16T15:39:25.732Z,99205.00
2022-09-16T15:42:11.081Z,99222.00
2022-09-16T15:44:45.049Z,99215.00
2022-09-16T15:47:20.039Z,99217.00
2022-09-16T15:49:52.063Z,99221.00
2022-09-16T15:52:20.946Z,99220.00
2022-09-16T15:54:52.138Z,99215.00
2022-09-16T15:57:30.192Z,99223.00
2022-09-16T16:00:10.077Z,99227.00
2022-09-16T16:02:42.378Z,99223.00
2022-09-16T16:05:14.889Z,99209.00
2022-09-16T16:07:46.372Z,99216.00
2022-09-16T16:10:20.779Z,99217.00
2022-09-16T16:12:50.113Z,99210.00
2022-09-16T16:15:20.945Z,99220.00
2022-09-16T16:17:50.803Z,99219.00
2022-09-16T16:20:22.198Z,99219.00
2022-09-16T16:22:51.073Z,99208.00
2022-09-16T16:25:19.987Z,99217.00
2022-09-16T16:27:48.518Z,99213.00
2022-09-16T16:30:17.072Z,99218.00
2022-09-16T16:32:45.675Z,99226.00
2022-09-16T16:35:14.805Z,99220.00
2022-09-16T16:37:47.245Z,99232.00
2022-09-16T16:40:16.680Z,99225.00
2022-09-16T16:42:47.121Z,99219.00
2022-09-16T16:45:15.724Z,99218.00
2022-09-16T16:47:46.322Z,99211.00
2022-09-16T16:50:14.840Z,99208.00
2022-09-16T16:52:44.682Z,99213.00
2022-09-16T16:55:13.501Z,99212.00
2022-09-16T16:57:41.981Z,99214.00
2022-09-16T17:00:13.603Z,99222.00
2022-09-16T17:02:42.119Z,99225.00
2022-09-16T17:05:11.552Z,99217.00
2022-09-16T17:07:40.028Z,99212.00
2022-09-16T17:10:11.513Z,99219.00
2022-09-16T17:12:40.019Z,99212.00
2022-09-16T17:15:09.558Z,99215.00
2022-09-16T17:17:38.476Z,99210.00
2022-09-16T17:20:07.933Z,99208.00
2022-09-16T17:22:36.515Z,99214.00
2022-09-16T17:25:05.674Z,99219.00
2022-09-16T17:27:35.531Z,99213.00
2022-09-16T17:30:04.129Z,99219.00
2022-09-16T17:32:32.581Z,99222.00
2022-09-16T17:35:01.053Z,99225.00
2022-09-16T17:37:29.525Z,99223.00
2022-09-16T17:39:57.993Z,99205.00
2022-09-16T17:42:26.515Z,99215.00
2022-09-16T17:44:56.298Z,99216.00
2022-09-16T17:47:25.048Z,99219.00
2022-09-16T17:49:53.714Z,99224.00
2022-09-16T17:52:22.151Z,99222.00
2022-09-16T17:54:50.608Z,99223.00
2022-09-16T17:57:19.095Z,99220.00
2022-09-16T17:59:47.548Z,99209.00
2022-09-16T18:02:17.401Z,99207.00
2022-09-16T18:04:47.891Z,99208.00
2022-09-16T18:07:16.441Z,99216.00
2022-09-16T18:09:44.871Z,99216.00
2022-09-16T18:12:13.446Z,99216.00
2022-09-16T18:14:41.900Z,99213.00
2022-09-16T18:17:10.575Z,99216.00
2022-09-16T18:19:40.520Z,99222.00
2022-09-16T18:22:08.936Z,99216.00
2022-09-16T18:24:37.414Z,99227.00
2022-09-16T18:27:06.081Z,99221.00
2022-09-16T18:29:34.668Z,99228.00
2022-09-16T18:32:03.358Z,99223.00
2022-09-16T18:34:33.618Z,99221.00
2022-09-16T18:37:03.639Z,99223.00
2022-09-16T18:39:32.405Z,99225.00
2022-09-16T18:42:00.981Z,99225.00
2022-09-16T18:44:29.608Z,99223.00
2022-09-16T18:46:58.382Z,99231.00
2022-09-16T18:49:28.953Z,99228.00
2022-09-16T18:51:57.843Z,99245.00
2022-09-16T18:57:15.402Z,99234.00
2022-09-16T18:59:43.924Z,99245.00
2022-09-16T19:02:14.438Z,99240.00
2022-09-16T19:04:44.246Z,99239.00
2022-09-16T19:07:15.177Z,99245.00
2022-09-16T19:09:45.942Z,99250.00
2022-09-16T19:12:15.478Z,99247.00
2022-09-16T19:14:43.982Z,99242.00
2022-09-16T19:17:12.918Z,99249.00
2022-09-16T19:19:41.464Z,99252.00
2022-09-16T19:22:10.042Z,99257.00
2022-09-16T19:24:38.530Z,99254.00
2022-09-16T19:27:08.374Z,99246.00
2022-09-16T19:29:36.899Z,99247.00
2022-09-16T19:32:05.465Z,99249.00
2022-09-16T19:34:34.258Z,99255.00
2022-09-16T19:37:02.793Z,99251.00
2022-09-16T19:39:31.766Z,99261.00
2022-09-16T19:42:03.559Z,99251.00
2022-09-16T19:44:33.390Z,99261.00
2022-09-16T19:47:02.526Z,99250.00
2022-09-16T19:49:31.039Z,99246.00
2022-09-16T19:51:59.461Z,99248.00
2022-09-16T19:54:28.041Z,99245.00
2022-09-16T19:56:56.522Z,99253.00
2022-09-16T19:59:25.020Z,99251.00
2022-09-16T20:01:54.938Z,99258.00
2022-09-16T20:04:23.521Z,99251.00
2022-09-16T20:06:52.010Z,99250.00
2022-09-16T20:09:20.815Z,99246.00
2022-09-16T20:11:50.192Z,99249.00
2022-09-16T20:14:20.662Z,99249.00
2022-09-16T20:16:50.098Z,99244.00
2022-09-16T20:19:21.415Z,99246.00
2022-09-16T20:21:50.099Z,99243.00
2022-09-16T20:24:24.025Z,99241.00
2022-09-16T20:26:54.846Z,99236.00
2022-09-16T20:29:23.500Z,99233.00
2022-09-16T20:31:53.570Z,99244.00
2022-09-16T20:34:24.457Z,99247.00
2022-09-16T20:36:53.118Z,99242.00
2022-09-16T20:39:22.198Z,99237.00
2022-09-16T20:41:52.611Z,99229.00
2022-09-16T20:44:21.276Z,99237.00
2022-09-16T20:46:50.081Z,99234.00
2022-09-16T20:49:20.374Z,99238.00
2022-09-16T20:51:50.595Z,99232.00
2022-09-16T20:54:19.357Z,99231.00
2022-09-16T20:56:49.198Z,99233.00
2022-09-16T20:59:20.119Z,99236.00
2022-09-16T21:01:49.428Z,99240.00
2022-09-16T21:04:20.003Z,99246.00
2022-09-16T21:06:50.921Z,99229.00
2022-09-16T21:09:19.722Z,99239.00
2022-09-16T21:11:50.125Z,99233.00
2022-09-16T21:14:21.762Z,99230.00
2022-09-16T21:16:51.624Z,99227.00
2022-09-16T21:19:20.197Z,99237.00
2022-09-16T21:21:50.024Z,99233.00
2022-09-16T21:24:18.838Z,99236.00
2022-09-16T21:26:47.625Z,99227.00
2022-09-16T21:29:21.428Z,99235.00
2022-09-16T21:31:50.587Z,99240.00
2022-09-16T21:34:20.834Z,99231.00
2022-09-16T21:36:52.537Z,99242.00
2022-09-16T21:39:22.012Z,99233.00
2022-09-16T21:41:50.880Z,99240.00
2022-09-16T21:44:19.574Z,99249.00
2022-09-16T21:46:49.582Z,99248.00
2022-09-16T21:49:22.802Z,99241.00
2022-09-16T21:51:53.792Z,99253.00
2022-09-16T21:54:23.042Z,99247.00
2022-09-16T21:56:52.654Z,99241.00
2022-09-16T21:59:21.628Z,99248.00
2022-09-16T22:01:51.597Z,99246.00
2022-09-16T22:04:21.709Z,99242.00
2022-09-16T22:06:52.794Z,99240.00
2022-09-16T22:09:21.306Z,99241.00
2022-09-16T22:11:50.075Z,99240.00
2022-09-16T22:14:19.014Z,99236.00
2022-09-16T22:16:47.580Z,99234.00
2022-09-16T22:19:18.288Z,99239.00
2022-09-16T22:21:47.956Z,99235.00
2022-09-16T22:24:20.352Z,99235.00
2022-09-16T22:26:49.692Z,99232.00
2022-09-16T22:29:18.181Z,99236.00
2022-09-16T22:31:46.702Z,99239.00
2022-09-16T22:34:15.251Z,99232.00
2022-09-16T22:36:43.765Z,99233.00
2022-09-16T22:39:15.263Z,99228.00
2022-09-16T22:41:45.314Z,99244.00
2022-09-16T22:44:13.871Z,99225.00
2022-09-16T22:46:44.156Z,99228.00
2022-09-16T22:49:13.378Z,99227.00
2022-09-16T22:51:42.158Z,99217.00
2022-09-16T22:54:12.113Z,99216.00
2022-09-16T22:56:40.910Z,99215.00
2022-09-16T22:59:17.330Z,99227.00
2022-09-16T23:01:45.916Z,99227.00
2022-09-16T23:04:14.535Z,99230.00
2022-09-16T23:06:43.274Z,99226.00
2022-09-16T23:09:13.892Z,99227.00
2022-09-16T23:11:42.773Z,99231.00
2022-09-16T23:14:15.718Z,99223.00
2022-09-16T23:16:44.235Z,99215.00
2022-09-16T23:19:13.407Z,99225.00
2022-09-16T23:21:42.481Z,99226.00
2022-09-16T23:24:15.384Z,99223.00
2022-09-16T23:26:44.860Z,99228.00
2022-09-16T23:29:16.106Z,99225.00
2022-09-16T23:31:45.733Z,99213.00
2022-09-16T23:34:16.370Z,99218.00
2022-09-16T23:36:45.209Z,99218.00
2022-09-16T23:39:15.543Z,99212.00
2022-09-16T23:41:45.114Z,99203.00
2022-09-16T23:44:16.689Z,99194.00
2022-09-16T23:46:45.524Z,99209.00
2022-09-16T23:49:16.900Z,99202.00
2022-09-16T23:51:45.383Z,99201.00
2022-09-16T23:54:13.936Z,99194.00
2022-09-16T23:56:43.755Z,99201.00
2022-09-16T23:59:12.729Z,99201.00
